createdAt,value
2023-05-19T00:00:03.598Z,3.05
2023-05-19T00:02:33.890Z,1.77
2023-05-19T00:05:02.163Z,3.80
2023-05-19T00:07:32.515Z,3.67
2023-05-19T00:10:00.846Z,2.58
2023-05-19T00:12:28.412Z,3.92
2023-05-19T00:14:56.336Z,2.53
2023-05-19T00:17:24.199Z,2.80
2023-05-19T00:19:52.458Z,1.70
2023-05-19T00:22:19.858Z,3.20
2023-05-19T00:24:48.992Z,3.30
2023-05-19T00:27:16.499Z,4.00
2023-05-19T00:29:44.458Z,2.78
2023-05-19T00:32:12.067Z,1.58
2023-05-19T00:34:39.640Z,3.40
2023-05-19T00:37:07.069Z,2.58
2023-05-19T00:39:34.517Z,1.20
2023-05-19T00:42:03.672Z,2.50
2023-05-19T00:44:31.082Z,3.08
2023-05-19T00:46:58.781Z,2.00
2023-05-19T00:49:26.476Z,3.33
2023-05-19T00:51:54.078Z,1.98
2023-05-19T00:54:21.897Z,3.70
2023-05-19T00:56:49.772Z,2.95
2023-05-19T00:59:18.691Z,1.73
2023-05-19T01:01:48.985Z,2.42
2023-05-19T01:04:16.853Z,3.30
2023-05-19T01:06:44.627Z,7.03
2023-05-19T01:09:12.290Z,3.97
2023-05-19T01:11:39.756Z,4.13
2023-05-19T01:14:07.426Z,1.60
2023-05-19T01:16:41.716Z,3.17
2023-05-19T01:19:22.017Z,1.55
2023-05-19T01:22:22.803Z,1.98
2023-05-19T01:25:26.051Z,2.40
2023-05-19T01:28:16.997Z,2.38
2023-05-19T01:30:49.464Z,1.48
2023-05-19T01:33:18.978Z,2.22
2023-05-19T01:35:47.795Z,2.45
2023-05-19T01:38:17.945Z,4.38
2023-05-19T01:40:46.475Z,3.08
2023-05-19T01:43:17.489Z,1.65
2023-05-19T01:45:47.396Z,1.77
2023-05-19T01:48:15.852Z,2.75
2023-05-19T01:50:43.820Z,5.20
2023-05-19T01:53:11.667Z,2.25
2023-05-19T01:55:45.608Z,1.92
2023-05-19T01:58:31.817Z,1.70
2023-05-19T02:01:08.061Z,1.77
2023-05-19T02:03:48.448Z,3.70
2023-05-19T02:06:31.473Z,2.03
2023-05-19T02:09:04.425Z,3.03
2023-05-19T02:11:38.713Z,1.92
2023-05-19T02:14:14.574Z,5.90
2023-05-19T02:16:46.712Z,5.32
2023-05-19T02:19:25.582Z,1.40
2023-05-19T02:21:53.251Z,3.72
2023-05-19T02:24:22.753Z,1.75
2023-05-19T02:26:50.530Z,2.22
2023-05-19T02:29:18.049Z,2.45
2023-05-19T02:31:46.922Z,3.00
2023-05-19T02:34:14.759Z,2.50
2023-05-19T02:36:44.140Z,2.60
2023-05-19T02:39:12.213Z,3.70
2023-05-19T02:41:39.716Z,6.53
2023-05-19T02:44:07.486Z,3.08
2023-05-19T02:46:35.093Z,3.10
2023-05-19T02:49:03.857Z,2.38
2023-05-19T02:51:31.312Z,1.92
2023-05-19T02:53:58.729Z,1.95
2023-05-19T02:56:26.400Z,2.33
2023-05-19T02:58:53.837Z,2.78
2023-05-19T03:01:23.077Z,5.75
2023-05-19T03:03:51.059Z,2.35
2023-05-19T03:06:19.986Z,2.60
2023-05-19T03:08:47.448Z,1.90
2023-05-19T03:11:15.406Z,3.83
2023-05-19T03:13:42.874Z,2.97
2023-05-19T03:16:10.323Z,1.60
2023-05-19T03:18:37.898Z,1.73
2023-05-19T03:21:05.968Z,2.33
2023-05-19T03:23:34.726Z,1.77
2023-05-19T03:26:02.186Z,2.28
2023-05-19T03:28:29.650Z,2.28
2023-05-19T03:30:57.390Z,1.98
2023-05-19T03:33:25.085Z,2.30
2023-05-19T03:35:53.046Z,3.08
2023-05-19T03:38:20.593Z,2.05
2023-05-19T03:40:49.624Z,5.45
2023-05-19T03:43:17.173Z,3.45
2023-05-19T03:45:44.640Z,1.65
2023-05-19T03:48:12.534Z,2.28
2023-05-19T03:50:39.977Z,2.00
2023-05-19T03:53:07.624Z,2.53
2023-05-19T03:55:37.219Z,5.53
2023-05-19T03:58:06.344Z,2.63
2023-05-19T04:00:34.193Z,2.90
2023-05-19T04:03:01.947Z,2.65
2023-05-19T04:05:29.867Z,2.63
2023-05-19T04:07:57.364Z,2.53
2023-05-19T04:10:24.869Z,3.53
2023-05-19T04:12:52.698Z,4.63
2023-05-19T04:15:21.609Z,2.65
2023-05-19T04:17:49.189Z,7.95
2023-05-19T04:20:16.681Z,8.07
2023-05-19T04:22:44.168Z,3.03
2023-05-19T04:25:11.853Z,3.05
2023-05-19T04:27:39.704Z,4.18
2023-05-19T04:30:08.544Z,3.50
2023-05-19T04:32:37.685Z,2.33
2023-05-19T04:35:05.722Z,5.85
2023-05-19T04:37:33.156Z,3.55
2023-05-19T04:40:00.586Z,3.17
2023-05-19T04:42:30.730Z,2.65
2023-05-19T04:44:58.161Z,2.20
2023-05-19T04:47:28.012Z,4.07
2023-05-19T04:49:56.990Z,2.05
2023-05-19T04:52:24.409Z,3.58
2023-05-19T04:54:52.830Z,2.30
2023-05-19T04:57:20.283Z,2.17
2023-05-19T04:59:47.970Z,3.35
2023-05-19T05:02:16.108Z,4.15
2023-05-19T05:04:44.142Z,1.70
2023-05-19T05:07:12.917Z,2.20
2023-05-19T05:09:40.484Z,1.92
2023-05-19T05:12:09.147Z,2.42
2023-05-19T05:14:37.199Z,2.08
2023-05-19T05:17:05.113Z,3.70
2023-05-19T05:19:33.177Z,2.00
2023-05-19T05:22:01.285Z,1.35
2023-05-19T05:24:30.648Z,3.28
2023-05-19T05:26:58.918Z,1.58
2023-05-19T05:29:26.575Z,2.20
2023-05-19T05:31:54.024Z,2.35
2023-05-19T05:34:21.541Z,2.53
2023-05-19T05:36:49.046Z,2.28
2023-05-19T05:39:16.487Z,2.05
2023-05-19T05:41:45.348Z,3.65
2023-05-19T05:44:12.893Z,1.80
2023-05-19T05:46:40.835Z,3.53
2023-05-19T05:49:08.797Z,2.38
2023-05-19T05:51:36.874Z,2.17
2023-05-19T05:54:07.415Z,2.00
2023-05-19T05:56:36.999Z,3.10
2023-05-19T05:59:05.765Z,2.38
2023-05-19T06:01:35.488Z,2.42
2023-05-19T06:04:03.193Z,2.35
2023-05-19T06:06:31.215Z,2.13
2023-05-19T06:08:58.715Z,3.83
2023-05-19T06:11:26.579Z,2.90
2023-05-19T06:13:54.029Z,2.17
2023-05-19T06:16:22.831Z,2.67
2023-05-19T06:18:50.365Z,1.90
2023-05-19T06:21:17.874Z,1.80
2023-05-19T06:23:45.361Z,2.85
2023-05-19T06:26:12.805Z,1.90
2023-05-19T06:28:40.215Z,2.58
2023-05-19T06:31:07.760Z,2.15
2023-05-19T06:33:36.871Z,2.70
2023-05-19T06:36:04.829Z,2.45
2023-05-19T06:38:32.491Z,4.28
2023-05-19T06:40:59.919Z,1.63
2023-05-19T06:43:27.382Z,1.67
2023-05-19T06:45:54.802Z,1.80
2023-05-19T06:48:22.416Z,1.60
2023-05-19T06:50:51.795Z,1.90
2023-05-19T06:53:21.223Z,3.42
2023-05-19T06:55:58.632Z,4.25
2023-05-19T06:58:27.816Z,2.38
2023-05-19T07:00:55.443Z,4.72
2023-05-19T07:03:22.922Z,3.50
2023-05-19T07:05:52.063Z,1.90
2023-05-19T07:08:19.499Z,3.67
2023-05-19T07:10:46.908Z,2.15
2023-05-19T07:13:14.377Z,3.67
2023-05-19T07:15:41.849Z,2.00
2023-05-19T07:18:09.374Z,1.90
2023-05-19T07:20:36.838Z,3.20
2023-05-19T07:23:05.880Z,4.07
2023-05-19T07:25:33.569Z,4.00
2023-05-19T07:28:01.293Z,2.08
2023-05-19T07:30:29.283Z,2.92
2023-05-19T07:32:56.952Z,4.22
2023-05-19T07:35:24.832Z,1.90
2023-05-19T07:37:52.761Z,3.22
2023-05-19T07:40:21.615Z,2.05
2023-05-19T07:42:50.900Z,2.13
2023-05-19T07:45:18.831Z,4.72
2023-05-19T07:47:46.434Z,1.90
2023-05-19T07:50:13.989Z,2.17
2023-05-19T07:52:41.501Z,4.80
2023-05-19T07:55:09.024Z,1.80
2023-05-19T07:57:37.980Z,1.20
2023-05-19T08:00:07.696Z,2.92
2023-05-19T08:02:35.321Z,1.58
2023-05-19T08:05:02.893Z,1.60
2023-05-19T08:07:30.429Z,1.00
2023-05-19T08:09:57.905Z,1.60
2023-05-19T08:12:25.468Z,1.63
2023-05-19T08:14:54.854Z,1.90
2023-05-19T08:17:23.246Z,1.92
2023-05-19T08:19:50.717Z,2.25
2023-05-19T08:22:18.455Z,1.77
2023-05-19T08:24:45.897Z,1.95
2023-05-19T08:27:13.361Z,2.20
2023-05-19T08:29:40.817Z,2.05
2023-05-19T08:32:12.431Z,1.92
2023-05-19T08:34:41.207Z,1.52
2023-05-19T08:37:08.646Z,1.65
2023-05-19T08:39:36.695Z,1.42
2023-05-19T08:42:04.268Z,2.08
2023-05-19T08:44:31.912Z,2.53
2023-05-19T08:47:03.604Z,3.70
2023-05-19T08:49:34.567Z,2.05
2023-05-19T08:52:10.605Z,2.20
2023-05-19T08:54:44.894Z,3.72
2023-05-19T08:57:13.410Z,1.70
2023-05-19T08:59:42.301Z,2.40
2023-05-19T09:02:12.031Z,2.03
2023-05-19T09:04:41.518Z,2.58
2023-05-19T09:07:10.857Z,1.90
2023-05-19T09:09:40.765Z,1.95
2023-05-19T09:12:08.262Z,2.78
2023-05-19T09:14:35.920Z,1.98
2023-05-19T09:17:03.983Z,1.80
2023-05-19T09:19:31.788Z,1.55
2023-05-19T09:22:01.849Z,1.17
2023-05-19T09:24:29.612Z,1.95
2023-05-19T09:26:59.233Z,2.13
2023-05-19T09:29:27.591Z,1.75
2023-05-19T09:32:00.515Z,1.75
2023-05-19T09:34:28.398Z,3.22
2023-05-19T09:36:57.824Z,1.42
2023-05-19T09:39:28.690Z,1.27
2023-05-19T09:41:58.483Z,1.30
2023-05-19T09:44:29.234Z,1.88
2023-05-19T09:46:58.247Z,2.20
2023-05-19T09:49:29.406Z,1.55
2023-05-19T09:51:57.315Z,2.28
2023-05-19T09:54:25.607Z,2.05
2023-05-19T09:56:58.686Z,3.22
2023-05-19T09:59:27.054Z,1.52
2023-05-19T10:01:56.727Z,3.03
2023-05-19T10:04:25.443Z,1.52
2023-05-19T10:06:55.012Z,2.10
2023-05-19T10:09:24.930Z,1.48
2023-05-19T10:11:54.730Z,2.45
2023-05-19T10:14:24.539Z,1.48
2023-05-19T10:16:52.971Z,1.30
2023-05-19T10:19:23.185Z,2.45
2023-05-19T10:21:51.587Z,3.08
2023-05-19T10:24:19.615Z,5.45
2023-05-19T10:26:52.519Z,2.38
2023-05-19T10:29:26.162Z,1.80
2023-05-19T10:31:55.143Z,3.38
2023-05-19T10:34:40.549Z,2.13
2023-05-19T10:37:18.026Z,2.55
2023-05-19T10:39:46.332Z,1.85
2023-05-19T10:42:17.681Z,1.40
2023-05-19T10:45:03.479Z,2.20
2023-05-19T10:47:32.413Z,3.22
2023-05-19T10:50:01.720Z,3.15
2023-05-19T10:52:33.000Z,1.70
2023-05-19T10:55:02.105Z,2.42
2023-05-19T10:57:31.979Z,2.28
2023-05-19T11:00:11.652Z,1.40
2023-05-19T11:02:41.733Z,1.45
2023-05-19T11:05:10.488Z,0.80
2023-05-19T11:07:38.064Z,1.02
2023-05-19T11:10:07.992Z,2.13
2023-05-19T11:12:43.677Z,1.70
2023-05-19T11:15:13.651Z,1.50
2023-05-19T11:17:42.399Z,1.75
2023-05-19T11:20:20.795Z,2.03
2023-05-19T11:23:02.665Z,2.03
2023-05-19T11:25:42.704Z,1.55
2023-05-19T11:28:12.558Z,1.75
2023-05-19T11:30:43.255Z,1.85
2023-05-19T11:33:11.701Z,1.25
2023-05-19T11:35:40.049Z,1.48
2023-05-19T11:38:08.080Z,1.13
2023-05-19T11:40:35.880Z,1.55
2023-05-19T11:43:03.364Z,1.30
2023-05-19T11:45:33.309Z,1.70
2023-05-19T11:48:03.837Z,2.03
2023-05-19T11:50:32.342Z,1.65
2023-05-19T11:53:01.775Z,1.83
2023-05-19T11:55:30.126Z,1.52
2023-05-19T12:00:31.167Z,1.52
2023-05-19T12:02:58.902Z,3.08
2023-05-19T12:05:29.230Z,1.67
2023-05-19T12:07:56.802Z,1.95
2023-05-19T12:10:25.357Z,1.33
2023-05-19T12:12:53.301Z,1.60
2023-05-19T12:15:21.851Z,2.15
2023-05-19T12:17:51.476Z,2.50
2023-05-19T12:20:20.021Z,1.45
2023-05-19T12:22:49.150Z,2.17
2023-05-19T12:25:17.129Z,1.92
2023-05-19T12:27:45.886Z,2.70
2023-05-19T12:30:14.476Z,5.13
2023-05-19T12:32:42.224Z,1.70
2023-05-19T12:35:10.694Z,2.42
2023-05-19T12:37:42.299Z,2.67
2023-05-19T12:40:17.501Z,1.60
2023-05-19T12:42:45.749Z,2.15
2023-05-19T12:45:13.220Z,2.45
2023-05-19T12:47:40.711Z,2.22
2023-05-19T12:50:10.308Z,2.08
2023-05-19T12:52:43.558Z,3.35
2023-05-19T12:55:13.988Z,2.92
2023-05-19T12:57:42.946Z,4.10
2023-05-19T13:00:17.438Z,3.63
2023-05-19T13:03:00.001Z,2.38
2023-05-19T13:05:29.135Z,1.70
2023-05-19T13:07:58.485Z,2.70
2023-05-19T13:10:28.119Z,2.97
2023-05-19T13:12:56.964Z,1.75
2023-05-19T13:15:26.175Z,3.28
2023-05-19T13:17:54.748Z,5.47
2023-05-19T13:20:22.738Z,2.03
2023-05-19T13:22:50.490Z,2.60
2023-05-19T13:25:18.267Z,5.32
2023-05-19T13:27:47.093Z,2.88
2023-05-19T13:30:15.771Z,4.70
2023-05-19T13:32:43.485Z,2.10
2023-05-19T13:35:11.776Z,2.22
2023-05-19T13:37:40.017Z,1.75
2023-05-19T13:40:08.763Z,1.80
2023-05-19T13:42:36.764Z,2.67
2023-05-19T13:45:06.424Z,2.90
2023-05-19T13:47:33.893Z,2.63
2023-05-19T13:50:01.312Z,1.55
2023-05-19T13:52:30.489Z,2.88
2023-05-19T13:54:58.161Z,2.58
2023-05-19T13:57:26.331Z,1.98
2023-05-19T14:00:02.504Z,1.67
2023-05-19T14:02:32.891Z,1.98
2023-05-19T14:05:00.469Z,1.98
2023-05-19T14:07:28.233Z,2.33
2023-05-19T14:09:56.269Z,3.10
2023-05-19T14:12:33.934Z,2.70
2023-05-19T14:15:09.072Z,3.08
2023-05-19T14:17:38.559Z,3.83
2023-05-19T14:20:07.399Z,2.28
2023-05-19T14:22:34.886Z,2.88
2023-05-19T14:25:03.010Z,3.25
2023-05-19T14:27:30.419Z,2.78
2023-05-19T14:29:58.097Z,3.78
2023-05-19T14:32:26.809Z,3.65
2023-05-19T14:34:57.436Z,3.72
2023-05-19T14:37:26.544Z,2.42
2023-05-19T14:39:54.040Z,2.92
2023-05-19T14:42:21.466Z,2.40
2023-05-19T14:44:48.945Z,3.90
2023-05-19T14:47:16.554Z,2.58
2023-05-19T14:49:44.033Z,2.22
2023-05-19T14:52:12.797Z,2.10
2023-05-19T14:54:40.185Z,2.20
2023-05-19T14:57:08.116Z,2.80
2023-05-19T14:59:37.920Z,3.95
2023-05-19T15:02:05.674Z,2.88
2023-05-19T15:04:33.155Z,2.53
2023-05-19T15:09:32.566Z,3.22
2023-05-19T15:12:01.123Z,2.20
2023-05-19T15:14:30.615Z,4.38
2023-05-19T15:16:58.762Z,2.83
2023-05-19T15:19:26.639Z,2.17
2023-05-19T15:21:54.646Z,2.17
2023-05-19T15:24:22.592Z,2.83
2023-05-19T15:26:51.930Z,4.63
2023-05-19T15:29:19.449Z,1.48
2023-05-19T15:31:47.167Z,2.35
2023-05-19T15:34:14.751Z,2.63
2023-05-19T15:36:42.243Z,2.85
2023-05-19T15:39:09.879Z,2.10
2023-05-19T15:41:37.396Z,4.43
2023-05-19T15:44:06.752Z,3.25
2023-05-19T15:46:34.751Z,2.35
2023-05-19T15:49:02.261Z,2.42
2023-05-19T15:51:29.880Z,2.15
2023-05-19T15:53:57.396Z,2.95
2023-05-19T15:56:24.843Z,2.90
2023-05-19T15:58:52.385Z,3.47
2023-05-19T16:01:21.820Z,2.80
2023-05-19T16:03:49.481Z,3.05
2023-05-19T16:06:17.704Z,6.72
2023-05-19T16:08:45.152Z,8.07
2023-05-19T16:11:12.964Z,4.07
2023-05-19T16:13:40.385Z,4.28
2023-05-19T16:16:08.367Z,2.40
2023-05-19T16:18:37.127Z,2.53
2023-05-19T16:21:04.921Z,1.60
2023-05-19T16:23:32.377Z,1.90
2023-05-19T16:25:59.863Z,3.38
2023-05-19T16:28:27.923Z,2.33
2023-05-19T16:30:58.338Z,2.05
2023-05-19T16:33:25.941Z,1.92
2023-05-19T16:35:54.856Z,2.50
2023-05-19T16:38:22.520Z,4.22
2023-05-19T16:40:50.028Z,4.38
2023-05-19T16:43:17.463Z,1.48
2023-05-19T16:45:44.964Z,2.28
2023-05-19T16:48:12.616Z,2.10
2023-05-19T16:50:40.690Z,2.53
2023-05-19T16:53:09.482Z,2.13
2023-05-19T16:55:37.022Z,2.58
2023-05-19T16:58:06.250Z,1.80
2023-05-19T17:00:33.952Z,5.53
2023-05-19T17:03:01.637Z,4.65
2023-05-19T17:05:29.262Z,3.15
2023-05-19T17:07:56.704Z,2.88
2023-05-19T17:10:25.459Z,2.60
2023-05-19T17:12:52.933Z,1.85
2023-05-19T17:15:20.362Z,2.03
2023-05-19T17:17:49.253Z,2.08
2023-05-19T17:20:16.730Z,4.93
2023-05-19T17:22:44.165Z,2.65
2023-05-19T17:25:11.748Z,2.22
2023-05-19T17:27:40.624Z,2.72
2023-05-19T17:30:09.695Z,3.42
2023-05-19T17:32:39.255Z,2.20
2023-05-19T17:35:08.196Z,3.65
2023-05-19T17:37:36.311Z,1.75
2023-05-19T17:40:04.355Z,1.92
2023-05-19T17:42:31.894Z,2.83
2023-05-19T17:45:00.931Z,2.08
2023-05-19T17:47:28.499Z,2.22
2023-05-19T17:49:55.987Z,2.17
2023-05-19T17:52:25.566Z,2.17
2023-05-19T17:54:53.696Z,2.08
2023-05-19T17:57:25.893Z,2.20
2023-05-19T17:59:53.793Z,2.55
2023-05-19T18:02:23.181Z,4.57
2023-05-19T18:04:53.026Z,2.85
2023-05-19T18:07:21.991Z,1.77
2023-05-19T18:09:52.206Z,1.95
2023-05-19T18:12:19.703Z,3.00
2023-05-19T18:14:47.226Z,2.85
2023-05-19T18:17:14.641Z,2.42
2023-05-19T18:19:43.435Z,2.40
2023-05-19T18:22:12.865Z,1.88
2023-05-19T18:24:40.678Z,3.05
2023-05-19T18:27:08.123Z,2.92
2023-05-19T18:29:35.617Z,3.42
2023-05-19T18:32:03.195Z,2.40
2023-05-19T18:34:30.950Z,3.17
2023-05-19T18:36:59.742Z,4.85
2023-05-19T18:39:29.358Z,1.90
2023-05-19T18:41:56.896Z,5.00
2023-05-19T18:44:24.315Z,2.80
2023-05-19T18:46:51.759Z,2.60
2023-05-19T18:49:19.840Z,3.03
2023-05-19T18:51:48.381Z,2.90
2023-05-19T18:54:17.258Z,3.92
2023-05-19T18:56:44.712Z,2.70
2023-05-19T18:59:12.252Z,3.25
2023-05-19T19:01:39.822Z,2.75
2023-05-19T19:04:07.478Z,6.85
2023-05-19T19:06:34.941Z,2.67
2023-05-19T19:09:02.597Z,3.85
2023-05-19T19:11:31.426Z,8.38
2023-05-19T19:13:58.949Z,2.60
2023-05-19T19:16:29.178Z,3.78
2023-05-19T19:18:56.799Z,3.20
2023-05-19T19:21:24.280Z,3.20
2023-05-19T19:23:53.664Z,2.42
2023-05-19T19:26:21.734Z,5.35
2023-05-19T19:28:50.811Z,2.47
2023-05-19T19:31:18.302Z,5.38
2023-05-19T19:33:45.759Z,4.30
2023-05-19T19:36:13.360Z,3.47
2023-05-19T19:38:40.866Z,4.50
2023-05-19T19:41:08.371Z,3.50
2023-05-19T19:43:35.823Z,3.00
2023-05-19T19:46:08.170Z,3.90
2023-05-19T19:48:36.094Z,5.38
2023-05-19T19:51:03.625Z,4.47
2023-05-19T19:53:31.142Z,5.38
2023-05-19T19:55:59.676Z,6.30
2023-05-19T19:58:28.060Z,5.70
2023-05-19T20:00:59.181Z,5.50
2023-05-19T20:03:28.371Z,5.47
2023-05-19T20:05:57.412Z,5.22
2023-05-19T20:08:25.430Z,5.82
2023-05-19T20:10:53.073Z,3.75
2023-05-19T20:13:22.157Z,5.60
2023-05-19T20:15:49.735Z,5.70
2023-05-19T20:18:17.241Z,3.55
2023-05-19T20:20:46.046Z,5.78
2023-05-19T20:23:16.145Z,4.55
2023-05-19T20:25:57.873Z,6.10
2023-05-19T20:28:30.245Z,6.00
2023-05-19T20:30:57.672Z,4.82
2023-05-19T20:33:25.127Z,8.40
2023-05-19T20:35:54.185Z,7.82
2023-05-19T20:38:21.614Z,5.05
2023-05-19T20:40:49.141Z,6.88
2023-05-19T20:43:16.646Z,5.32
2023-05-19T20:45:44.292Z,4.70
2023-05-19T20:48:11.999Z,9.65
2023-05-19T20:50:40.199Z,8.65
2023-05-19T20:53:10.140Z,5.53
2023-05-19T20:55:38.895Z,8.35
2023-05-19T20:58:06.512Z,10.30
2023-05-19T21:00:34.220Z,7.57
2023-05-19T21:03:02.072Z,6.13
2023-05-19T21:05:30.035Z,6.10
2023-05-19T21:07:57.488Z,6.78
2023-05-19T21:10:28.164Z,5.07
2023-05-19T21:12:58.337Z,5.78
2023-05-19T21:15:26.888Z,8.93
2023-05-19T21:17:54.383Z,5.75
2023-05-19T21:20:22.006Z,4.70
2023-05-19T21:22:49.451Z,4.00
2023-05-19T21:25:17.188Z,6.50
2023-05-19T21:27:46.585Z,6.30
2023-05-19T21:30:14.325Z,5.13
2023-05-19T21:32:41.829Z,4.93
2023-05-19T21:35:09.791Z,5.30
2023-05-19T21:37:37.465Z,6.45
2023-05-19T21:40:05.236Z,4.07
2023-05-19T21:42:32.681Z,6.25
2023-05-19T21:45:01.475Z,7.20
2023-05-19T21:47:29.003Z,5.40
2023-05-19T21:49:56.433Z,5.50
2023-05-19T21:52:23.933Z,4.80
2023-05-19T21:54:51.944Z,4.82
2023-05-19T21:57:19.473Z,5.32
2023-05-19T21:59:47.120Z,5.68
2023-05-19T22:02:16.082Z,5.03
2023-05-19T22:04:44.752Z,5.32
2023-05-19T22:07:12.220Z,6.30
2023-05-19T22:09:39.656Z,5.60
2023-05-19T22:12:08.340Z,7.70
2023-05-19T22:14:36.447Z,8.85
2023-05-19T22:17:03.925Z,7.85
2023-05-19T22:19:32.693Z,7.60
2023-05-19T22:22:12.727Z,5.65
2023-05-19T22:24:41.510Z,4.93
2023-05-19T22:27:09.308Z,5.00
2023-05-19T22:29:38.331Z,6.43
2023-05-19T22:32:07.553Z,6.63
2023-05-19T22:34:36.452Z,8.48
2023-05-19T22:37:04.091Z,7.22
2023-05-19T22:39:31.529Z,11.82
2023-05-19T22:41:59.005Z,5.13
2023-05-19T22:44:26.489Z,8.02
2023-05-19T22:46:53.917Z,4.38
2023-05-19T22:49:22.816Z,5.63
2023-05-19T22:51:52.002Z,6.85
2023-05-19T22:54:19.520Z,7.72
2023-05-19T22:56:48.739Z,6.35
2023-05-19T22:59:17.713Z,6.93
2023-05-19T23:01:46.554Z,6.68
2023-05-19T23:04:14.410Z,5.60
2023-05-19T23:06:42.432Z,8.07
2023-05-19T23:09:11.333Z,6.25
2023-05-19T23:11:38.861Z,5.60
2023-05-19T23:14:06.627Z,7.20
2023-05-19T23:16:34.120Z,6.03
2023-05-19T23:19:01.696Z,8.70
2023-05-19T23:21:31.262Z,7.95
2023-05-19T23:23:59.400Z,6.00
2023-05-19T23:26:28.275Z,7.07
2023-05-19T23:28:55.791Z,5.93
2023-05-19T23:31:23.330Z,10.50
2023-05-19T23:33:50.857Z,10.57
2023-05-19T23:36:19.222Z,12.18
2023-05-19T23:38:46.732Z,9.75
2023-05-19T23:41:14.164Z,11.30
2023-05-19T23:43:42.914Z,12.07
2023-05-19T23:46:10.643Z,9.65
2023-05-19T23:48:38.199Z,11.18
2023-05-19T23:51:06.047Z,10.52
2023-05-19T23:53:33.499Z,8.52
2023-05-19T23:56:01.072Z,9.48
2023-05-19T23:58:28.563Z,11.48
